sensor_id;sensor_type;location;lat;lon;timestamp;P1;durP1;ratioP1;P2;durP2;ratioP2
40449;SDS011;41787;53.570;10.032;2022-11-25T00:03:34;69.80;;;17.27;;
40449;SDS011;41787;53.570;10.032;2022-11-25T00:06:07;77.72;;;17.95;;
40449;SDS011;41787;53.570;10.032;2022-11-25T00:08:33;62.55;;;17.90;;
40449;SDS011;41787;53.570;10.032;2022-11-25T00:11:00;48.00;;;17.98;;
40449;SDS011;41787;53.570;10.032;2022-11-25T00:13:26;36.38;;;18.15;;
40449;SDS011;41787;53.570;10.032;2022-11-25T00:15:52;79.18;;;19.65;;
40449;SDS011;41787;53.570;10.032;2022-11-25T00:18:17;72.32;;;18.95;;
40449;SDS011;41787;53.570;10.032;2022-11-25T00:20:43;67.95;;;19.33;;
40449;SDS011;41787;53.570;10.032;2022-11-25T00:23:09;61.47;;;18.70;;
40449;SDS011;41787;53.570;10.032;2022-11-25T00:25:35;68.90;;;19.42;;
40449;SDS011;41787;53.570;10.032;2022-11-25T00:28:01;179.63;;;23.50;;
40449;SDS011;41787;53.570;10.032;2022-11-25T00:30:27;51.40;;;19.75;;
40449;SDS011;41787;53.570;10.032;2022-11-25T00:32:53;56.85;;;19.10;;
40449;SDS011;41787;53.570;10.032;2022-11-25T00:35:19;45.20;;;19.38;;
40449;SDS011;41787;53.570;10.032;2022-11-25T00:37:45;89.80;;;19.17;;
40449;SDS011;41787;53.570;10.032;2022-11-25T00:40:11;75.05;;;18.95;;
40449;SDS011;41787;53.570;10.032;2022-11-25T00:42:37;78.78;;;20.27;;
40449;SDS011;41787;53.570;10.032;2022-11-25T00:45:22;46.63;;;19.90;;
40449;SDS011;41787;53.570;10.032;2022-11-25T00:47:48;57.22;;;18.85;;
40449;SDS011;41787;53.570;10.032;2022-11-25T00:50:14;47.53;;;21.35;;
40449;SDS011;41787;53.570;10.032;2022-11-25T00:52:40;69.20;;;20.15;;
40449;SDS011;41787;53.570;10.032;2022-11-25T00:55:06;51.85;;;20.23;;
40449;SDS011;41787;53.570;10.032;2022-11-25T00:57:32;108.82;;;19.92;;
40449;SDS011;41787;53.570;10.032;2022-11-25T00:59:58;53.33;;;20.23;;
40449;SDS011;41787;53.570;10.032;2022-11-25T01:02:24;61.30;;;20.05;;
40449;SDS011;41787;53.570;10.032;2022-11-25T01:04:50;92.85;;;19.92;;
40449;SDS011;41787;53.570;10.032;2022-11-25T01:07:16;88.65;;;18.63;;
40449;SDS011;41787;53.570;10.032;2022-11-25T01:09:42;50.83;;;20.10;;
40449;SDS011;41787;53.570;10.032;2022-11-25T01:12:08;46.17;;;18.67;;
40449;SDS011;41787;53.570;10.032;2022-11-25T01:14:34;45.90;;;20.60;;
40449;SDS011;41787;53.570;10.032;2022-11-25T01:17:00;43.47;;;21.77;;
40449;SDS011;41787;53.570;10.032;2022-11-25T01:19:26;50.22;;;19.90;;
40449;SDS011;41787;53.570;10.032;2022-11-25T01:21:52;56.17;;;20.75;;
40449;SDS011;41787;53.570;10.032;2022-11-25T01:24:18;59.90;;;20.63;;
40449;SDS011;41787;53.570;10.032;2022-11-25T01:26:44;77.88;;;20.25;;
40449;SDS011;41787;53.570;10.032;2022-11-25T01:29:14;53.72;;;21.23;;
40449;SDS011;41787;53.570;10.032;2022-11-25T01:31:40;48.83;;;20.02;;
40449;SDS011;41787;53.570;10.032;2022-11-25T01:34:09;59.03;;;21.30;;
40449;SDS011;41787;53.570;10.032;2022-11-25T01:36:36;55.97;;;21.13;;
40449;SDS011;41787;53.570;10.032;2022-11-25T01:39:02;50.55;;;21.15;;
40449;SDS011;41787;53.570;10.032;2022-11-25T01:41:29;60.63;;;21.40;;
40449;SDS011;41787;53.570;10.032;2022-11-25T01:46:42;47.40;;;19.17;;
40449;SDS011;41787;53.570;10.032;2022-11-25T01:49:13;53.78;;;22.00;;
40449;SDS011;41787;53.570;10.032;2022-11-25T01:51:40;44.53;;;21.00;;
40449;SDS011;41787;53.570;10.032;2022-11-25T01:54:08;48.10;;;20.90;;
40449;SDS011;41787;53.570;10.032;2022-11-25T01:56:36;36.88;;;18.25;;
40449;SDS011;41787;53.570;10.032;2022-11-25T01:59:04;41.63;;;20.63;;
40449;SDS011;41787;53.570;10.032;2022-11-25T02:01:30;41.08;;;20.42;;
40449;SDS011;41787;53.570;10.032;2022-11-25T02:03:56;44.58;;;20.63;;
40449;SDS011;41787;53.570;10.032;2022-11-25T02:06:27;36.78;;;19.27;;
40449;SDS011;41787;53.570;10.032;2022-11-25T02:08:55;41.67;;;20.05;;
40449;SDS011;41787;53.570;10.032;2022-11-25T02:11:22;42.05;;;19.70;;
40449;SDS011;41787;53.570;10.032;2022-11-25T02:13:50;42.47;;;19.45;;
40449;SDS011;41787;53.570;10.032;2022-11-25T02:16:16;35.47;;;19.88;;
40449;SDS011;41787;53.570;10.032;2022-11-25T02:18:43;41.83;;;20.05;;
40449;SDS011;41787;53.570;10.032;2022-11-25T02:21:09;46.03;;;20.17;;
40449;SDS011;41787;53.570;10.032;2022-11-25T02:23:50;36.65;;;18.48;;
40449;SDS011;41787;53.570;10.032;2022-11-25T02:26:18;40.92;;;20.15;;
40449;SDS011;41787;53.570;10.032;2022-11-25T02:28:45;40.30;;;18.65;;
40449;SDS011;41787;53.570;10.032;2022-11-25T02:31:12;39.55;;;19.13;;
40449;SDS011;41787;53.570;10.032;2022-11-25T02:33:44;42.00;;;19.13;;
40449;SDS011;41787;53.570;10.032;2022-11-25T02:36:12;46.70;;;20.27;;
40449;SDS011;41787;53.570;10.032;2022-11-25T02:41:17;37.80;;;19.25;;
40449;SDS011;41787;53.570;10.032;2022-11-25T02:46:11;46.33;;;17.95;;
40449;SDS011;41787;53.570;10.032;2022-11-25T02:48:38;45.13;;;20.40;;
40449;SDS011;41787;53.570;10.032;2022-11-25T02:51:05;47.67;;;20.45;;
40449;SDS011;41787;53.570;10.032;2022-11-25T02:53:31;47.40;;;18.83;;
40449;SDS011;41787;53.570;10.032;2022-11-25T02:55:57;47.80;;;22.08;;
40449;SDS011;41787;53.570;10.032;2022-11-25T02:58:23;45.38;;;20.77;;
40449;SDS011;41787;53.570;10.032;2022-11-25T03:00:49;37.75;;;19.90;;
40449;SDS011;41787;53.570;10.032;2022-11-25T03:03:16;43.20;;;20.55;;
40449;SDS011;41787;53.570;10.032;2022-11-25T03:05:42;45.85;;;21.83;;
40449;SDS011;41787;53.570;10.032;2022-11-25T03:08:08;45.72;;;20.05;;
40449;SDS011;41787;53.570;10.032;2022-11-25T03:10:34;41.47;;;21.15;;
40449;SDS011;41787;53.570;10.032;2022-11-25T03:13:01;45.72;;;20.55;;
40449;SDS011;41787;53.570;10.032;2022-11-25T03:15:27;45.65;;;21.95;;
40449;SDS011;41787;53.570;10.032;2022-11-25T03:17:53;42.42;;;22.00;;
40449;SDS011;41787;53.570;10.032;2022-11-25T03:20:20;49.97;;;22.02;;
40449;SDS011;41787;53.570;10.032;2022-11-25T03:22:46;51.75;;;22.95;;
40449;SDS011;41787;53.570;10.032;2022-11-25T03:25:12;49.50;;;21.48;;
40449;SDS011;41787;53.570;10.032;2022-11-25T03:27:38;48.65;;;23.23;;
40449;SDS011;41787;53.570;10.032;2022-11-25T03:30:05;50.30;;;21.35;;
40449;SDS011;41787;53.570;10.032;2022-11-25T03:32:32;44.35;;;21.35;;
40449;SDS011;41787;53.570;10.032;2022-11-25T03:34:58;48.33;;;23.02;;
40449;SDS011;41787;53.570;10.032;2022-11-25T03:37:24;52.58;;;23.65;;
40449;SDS011;41787;53.570;10.032;2022-11-25T03:39:50;47.67;;;22.13;;
40449;SDS011;41787;53.570;10.032;2022-11-25T03:42:15;49.88;;;22.73;;
40449;SDS011;41787;53.570;10.032;2022-11-25T03:44:41;47.38;;;23.20;;
40449;SDS011;41787;53.570;10.032;2022-11-25T03:47:07;52.30;;;24.17;;
40449;SDS011;41787;53.570;10.032;2022-11-25T03:49:33;57.22;;;24.15;;
40449;SDS011;41787;53.570;10.032;2022-11-25T03:51:59;49.92;;;22.88;;
40449;SDS011;41787;53.570;10.032;2022-11-25T03:54:25;60.03;;;23.92;;
40449;SDS011;41787;53.570;10.032;2022-11-25T03:56:51;51.63;;;24.10;;
40449;SDS011;41787;53.570;10.032;2022-11-25T03:59:17;57.53;;;23.13;;
40449;SDS011;41787;53.570;10.032;2022-11-25T04:01:43;49.35;;;23.40;;
40449;SDS011;41787;53.570;10.032;2022-11-25T04:04:09;50.25;;;21.77;;
40449;SDS011;41787;53.570;10.032;2022-11-25T04:06:35;49.78;;;23.52;;
40449;SDS011;41787;53.570;10.032;2022-11-25T04:09:03;44.95;;;22.33;;
40449;SDS011;41787;53.570;10.032;2022-11-25T04:11:29;52.50;;;20.92;;
40449;SDS011;41787;53.570;10.032;2022-11-25T04:14:13;49.35;;;21.20;;
40449;SDS011;41787;53.570;10.032;2022-11-25T04:16:39;46.78;;;20.40;;
40449;SDS011;41787;53.570;10.032;2022-11-25T04:19:05;48.85;;;20.98;;
40449;SDS011;41787;53.570;10.032;2022-11-25T04:21:31;43.15;;;20.42;;
40449;SDS011;41787;53.570;10.032;2022-11-25T04:23:57;43.72;;;20.02;;
40449;SDS011;41787;53.570;10.032;2022-11-25T04:26:23;42.20;;;19.75;;
40449;SDS011;41787;53.570;10.032;2022-11-25T04:28:49;48.78;;;21.48;;
40449;SDS011;41787;53.570;10.032;2022-11-25T04:31:15;39.50;;;18.08;;
40449;SDS011;41787;53.570;10.032;2022-11-25T04:33:41;43.75;;;18.98;;
40449;SDS011;41787;53.570;10.032;2022-11-25T04:36:07;37.30;;;18.48;;
40449;SDS011;41787;53.570;10.032;2022-11-25T04:38:33;40.53;;;18.70;;
40449;SDS011;41787;53.570;10.032;2022-11-25T04:40:59;45.60;;;18.40;;
40449;SDS011;41787;53.570;10.032;2022-11-25T04:43:25;45.33;;;17.45;;
40449;SDS011;41787;53.570;10.032;2022-11-25T04:45:51;33.00;;;17.80;;
40449;SDS011;41787;53.570;10.032;2022-11-25T04:48:17;45.25;;;20.33;;
40449;SDS011;41787;53.570;10.032;2022-11-25T04:50:43;38.17;;;17.80;;
40449;SDS011;41787;53.570;10.032;2022-11-25T04:53:09;40.80;;;16.85;;
40449;SDS011;41787;53.570;10.032;2022-11-25T04:55:35;39.28;;;17.90;;
40449;SDS011;41787;53.570;10.032;2022-11-25T04:58:01;33.20;;;16.00;;
40449;SDS011;41787;53.570;10.032;2022-11-25T05:00:27;29.08;;;14.93;;
40449;SDS011;41787;53.570;10.032;2022-11-25T05:03:05;41.47;;;16.48;;
40449;SDS011;41787;53.570;10.032;2022-11-25T05:05:31;38.10;;;14.38;;
40449;SDS011;41787;53.570;10.032;2022-11-25T05:07:57;38.15;;;16.27;;
40449;SDS011;41787;53.570;10.032;2022-11-25T05:10:23;40.53;;;16.08;;
40449;SDS011;41787;53.570;10.032;2022-11-25T05:12:49;33.78;;;16.23;;
40449;SDS011;41787;53.570;10.032;2022-11-25T05:15:15;43.60;;;17.67;;
40449;SDS011;41787;53.570;10.032;2022-11-25T05:17:41;34.30;;;15.75;;
40449;SDS011;41787;53.570;10.032;2022-11-25T05:20:07;36.60;;;16.13;;
40449;SDS011;41787;53.570;10.032;2022-11-25T05:22:33;32.25;;;16.10;;
40449;SDS011;41787;53.570;10.032;2022-11-25T05:25:00;33.33;;;15.35;;
40449;SDS011;41787;53.570;10.032;2022-11-25T05:27:26;36.20;;;16.08;;
40449;SDS011;41787;53.570;10.032;2022-11-25T05:29:52;32.17;;;15.45;;
40449;SDS011;41787;53.570;10.032;2022-11-25T05:32:18;35.55;;;15.80;;
40449;SDS011;41787;53.570;10.032;2022-11-25T05:34:44;30.60;;;16.08;;
40449;SDS011;41787;53.570;10.032;2022-11-25T05:37:11;34.90;;;17.10;;
40449;SDS011;41787;53.570;10.032;2022-11-25T05:39:38;29.70;;;14.80;;
40449;SDS011;41787;53.570;10.032;2022-11-25T05:42:04;32.97;;;16.52;;
40449;SDS011;41787;53.570;10.032;2022-11-25T05:44:30;37.70;;;16.83;;
40449;SDS011;41787;53.570;10.032;2022-11-25T05:46:56;44.40;;;15.27;;
40449;SDS011;41787;53.570;10.032;2022-11-25T05:49:22;35.67;;;16.50;;
40449;SDS011;41787;53.570;10.032;2022-11-25T05:51:48;41.58;;;16.58;;
40449;SDS011;41787;53.570;10.032;2022-11-25T05:54:14;35.75;;;16.48;;
40449;SDS011;41787;53.570;10.032;2022-11-25T05:56:40;37.30;;;16.17;;
40449;SDS011;41787;53.570;10.032;2022-11-25T05:59:06;35.03;;;16.63;;
40449;SDS011;41787;53.570;10.032;2022-11-25T06:01:32;36.10;;;16.88;;
40449;SDS011;41787;53.570;10.032;2022-11-25T06:03:58;34.40;;;15.15;;
40449;SDS011;41787;53.570;10.032;2022-11-25T06:06:24;36.33;;;16.85;;
40449;SDS011;41787;53.570;10.032;2022-11-25T06:08:50;22.92;;;14.32;;
40449;SDS011;41787;53.570;10.032;2022-11-25T06:11:16;34.45;;;14.55;;
40449;SDS011;41787;53.570;10.032;2022-11-25T06:13:43;32.60;;;14.68;;
40449;SDS011;41787;53.570;10.032;2022-11-25T06:16:10;31.13;;;16.08;;
40449;SDS011;41787;53.570;10.032;2022-11-25T06:18:37;34.00;;;14.45;;
40449;SDS011;41787;53.570;10.032;2022-11-25T06:21:03;36.13;;;15.57;;
40449;SDS011;41787;53.570;10.032;2022-11-25T06:23:29;36.22;;;15.82;;
40449;SDS011;41787;53.570;10.032;2022-11-25T06:26:05;34.67;;;14.43;;
40449;SDS011;41787;53.570;10.032;2022-11-25T06:28:32;35.88;;;15.32;;
40449;SDS011;41787;53.570;10.032;2022-11-25T06:31:05;30.77;;;14.43;;
40449;SDS011;41787;53.570;10.032;2022-11-25T06:33:31;35.10;;;15.05;;
40449;SDS011;41787;53.570;10.032;2022-11-25T06:35:57;31.98;;;15.07;;
40449;SDS011;41787;53.570;10.032;2022-11-25T06:38:23;40.55;;;17.15;;
40449;SDS011;41787;53.570;10.032;2022-11-25T06:40:49;32.78;;;15.30;;
40449;SDS011;41787;53.570;10.032;2022-11-25T06:43:15;33.28;;;14.48;;
40449;SDS011;41787;53.570;10.032;2022-11-25T06:45:40;34.75;;;14.52;;
40449;SDS011;41787;53.570;10.032;2022-11-25T06:48:06;33.60;;;14.07;;
40449;SDS011;41787;53.570;10.032;2022-11-25T06:50:32;32.13;;;13.77;;
40449;SDS011;41787;53.570;10.032;2022-11-25T06:52:59;29.50;;;13.82;;
40449;SDS011;41787;53.570;10.032;2022-11-25T06:55:26;33.28;;;12.23;;
40449;SDS011;41787;53.570;10.032;2022-11-25T06:57:52;25.65;;;11.73;;
40449;SDS011;41787;53.570;10.032;2022-11-25T07:00:18;33.80;;;13.32;;
40449;SDS011;41787;53.570;10.032;2022-11-25T07:02:43;31.38;;;13.45;;
40449;SDS011;41787;53.570;10.032;2022-11-25T07:05:09;27.27;;;12.35;;
40449;SDS011;41787;53.570;10.032;2022-11-25T07:07:35;28.10;;;12.38;;
40449;SDS011;41787;53.570;10.032;2022-11-25T07:10:01;26.13;;;11.73;;
40449;SDS011;41787;53.570;10.032;2022-11-25T07:12:29;29.60;;;12.20;;
40449;SDS011;41787;53.570;10.032;2022-11-25T07:14:55;34.42;;;12.30;;
40449;SDS011;41787;53.570;10.032;2022-11-25T07:17:21;31.08;;;11.18;;
40449;SDS011;41787;53.570;10.032;2022-11-25T07:19:47;29.60;;;11.05;;
40449;SDS011;41787;53.570;10.032;2022-11-25T07:22:16;25.05;;;10.85;;
40449;SDS011;41787;53.570;10.032;2022-11-25T07:24:42;29.37;;;12.47;;
40449;SDS011;41787;53.570;10.032;2022-11-25T07:27:08;22.60;;;10.57;;
40449;SDS011;41787;53.570;10.032;2022-11-25T07:29:34;18.88;;;9.55;;
40449;SDS011;41787;53.570;10.032;2022-11-25T07:32:00;26.25;;;10.60;;
40449;SDS011;41787;53.570;10.032;2022-11-25T07:34:26;21.63;;;9.82;;
40449;SDS011;41787;53.570;10.032;2022-11-25T07:36:52;23.40;;;10.90;;
40449;SDS011;41787;53.570;10.032;2022-11-25T07:39:19;28.92;;;11.00;;
40449;SDS011;41787;53.570;10.032;2022-11-25T07:41:49;22.25;;;9.40;;
40449;SDS011;41787;53.570;10.032;2022-11-25T07:44:15;28.23;;;11.02;;
40449;SDS011;41787;53.570;10.032;2022-11-25T07:46:42;26.08;;;9.93;;
40449;SDS011;41787;53.570;10.032;2022-11-25T07:49:10;21.45;;;9.25;;
40449;SDS011;41787;53.570;10.032;2022-11-25T07:51:41;26.35;;;10.40;;
40449;SDS011;41787;53.570;10.032;2022-11-25T07:54:08;30.85;;;10.35;;
40449;SDS011;41787;53.570;10.032;2022-11-25T07:56:35;24.45;;;9.38;;
40449;SDS011;41787;53.570;10.032;2022-11-25T07:59:09;22.13;;;8.30;;
40449;SDS011;41787;53.570;10.032;2022-11-25T08:01:36;23.92;;;8.93;;
40449;SDS011;41787;53.570;10.032;2022-11-25T08:04:02;26.83;;;10.05;;
40449;SDS011;41787;53.570;10.032;2022-11-25T08:06:30;22.38;;;9.65;;
40449;SDS011;41787;53.570;10.032;2022-11-25T08:08:56;21.08;;;9.75;;
40449;SDS011;41787;53.570;10.032;2022-11-25T08:11:27;19.90;;;10.00;;
40449;SDS011;41787;53.570;10.032;2022-11-25T08:13:53;23.80;;;9.90;;
40449;SDS011;41787;53.570;10.032;2022-11-25T08:16:20;23.13;;;10.30;;
40449;SDS011;41787;53.570;10.032;2022-11-25T08:18:46;23.95;;;9.38;;
40449;SDS011;41787;53.570;10.032;2022-11-25T08:21:12;28.60;;;9.88;;
40449;SDS011;41787;53.570;10.032;2022-11-25T08:23:40;23.40;;;9.80;;
40449;SDS011;41787;53.570;10.032;2022-11-25T08:26:11;25.17;;;9.82;;
40449;SDS011;41787;53.570;10.032;2022-11-25T08:28:38;17.98;;;9.25;;
40449;SDS011;41787;53.570;10.032;2022-11-25T08:31:07;24.10;;;9.63;;
40449;SDS011;41787;53.570;10.032;2022-11-25T08:33:33;25.35;;;8.38;;
40449;SDS011;41787;53.570;10.032;2022-11-25T08:35:59;23.73;;;8.93;;
40449;SDS011;41787;53.570;10.032;2022-11-25T08:38:26;22.13;;;9.77;;
40449;SDS011;41787;53.570;10.032;2022-11-25T08:40:52;17.50;;;8.68;;
40449;SDS011;41787;53.570;10.032;2022-11-25T08:43:18;16.02;;;8.07;;
40449;SDS011;41787;53.570;10.032;2022-11-25T08:45:46;22.40;;;8.90;;
40449;SDS011;41787;53.570;10.032;2022-11-25T08:48:12;19.40;;;7.43;;
40449;SDS011;41787;53.570;10.032;2022-11-25T08:50:45;17.42;;;7.13;;
40449;SDS011;41787;53.570;10.032;2022-11-25T08:53:14;19.65;;;7.25;;
40449;SDS011;41787;53.570;10.032;2022-11-25T08:55:40;18.15;;;7.78;;
40449;SDS011;41787;53.570;10.032;2022-11-25T08:58:06;25.00;;;7.78;;
40449;SDS011;41787;53.570;10.032;2022-11-25T09:00:35;22.30;;;7.80;;
40449;SDS011;41787;53.570;10.032;2022-11-25T09:03:01;18.58;;;7.55;;
40449;SDS011;41787;53.570;10.032;2022-11-25T09:05:27;13.10;;;6.72;;
40449;SDS011;41787;53.570;10.032;2022-11-25T09:07:59;24.40;;;7.57;;
40449;SDS011;41787;53.570;10.032;2022-11-25T09:10:25;20.08;;;7.65;;
40449;SDS011;41787;53.570;10.032;2022-11-25T09:12:51;23.95;;;7.45;;
40449;SDS011;41787;53.570;10.032;2022-11-25T09:15:17;19.30;;;7.00;;
40449;SDS011;41787;53.570;10.032;2022-11-25T09:17:43;21.08;;;7.47;;
40449;SDS011;41787;53.570;10.032;2022-11-25T09:20:09;18.00;;;7.63;;
40449;SDS011;41787;53.570;10.032;2022-11-25T09:22:35;14.32;;;7.63;;
40449;SDS011;41787;53.570;10.032;2022-11-25T09:25:01;17.58;;;7.70;;
40449;SDS011;41787;53.570;10.032;2022-11-25T09:27:27;22.38;;;9.02;;
40449;SDS011;41787;53.570;10.032;2022-11-25T09:29:53;17.85;;;7.75;;
40449;SDS011;41787;53.570;10.032;2022-11-25T09:32:19;14.85;;;7.20;;
40449;SDS011;41787;53.570;10.032;2022-11-25T09:34:45;16.42;;;7.10;;
40449;SDS011;41787;53.570;10.032;2022-11-25T09:37:11;16.35;;;7.38;;
40449;SDS011;41787;53.570;10.032;2022-11-25T09:39:37;20.27;;;7.68;;
40449;SDS011;41787;53.570;10.032;2022-11-25T09:42:06;21.02;;;7.97;;
40449;SDS011;41787;53.570;10.032;2022-11-25T09:52:42;21.42;;;8.15;;
40449;SDS011;41787;53.570;10.032;2022-11-25T09:55:20;22.25;;;8.48;;
40449;SDS011;41787;53.570;10.032;2022-11-25T10:03:37;21.92;;;7.38;;
40449;SDS011;41787;53.570;10.032;2022-11-25T10:06:25;27.00;;;8.93;;
40449;SDS011;41787;53.570;10.032;2022-11-25T10:08:51;20.33;;;7.75;;
40449;SDS011;41787;53.570;10.032;2022-11-25T10:11:41;21.77;;;8.82;;
40449;SDS011;41787;53.570;10.032;2022-11-25T10:14:14;21.55;;;8.68;;
40449;SDS011;41787;53.570;10.032;2022-11-25T10:19:20;25.27;;;8.63;;
40449;SDS011;41787;53.570;10.032;2022-11-25T10:21:48;23.08;;;8.60;;
40449;SDS011;41787;53.570;10.032;2022-11-25T10:24:15;20.25;;;7.68;;
40449;SDS011;41787;53.570;10.032;2022-11-25T10:26:43;19.92;;;8.35;;
40449;SDS011;41787;53.570;10.032;2022-11-25T10:31:37;25.58;;;9.35;;
40449;SDS011;41787;53.570;10.032;2022-11-25T10:34:39;23.40;;;8.82;;
40449;SDS011;41787;53.570;10.032;2022-11-25T10:36:57;21.85;;;9.18;;
40449;SDS011;41787;53.570;10.032;2022-11-25T10:39:25;24.30;;;9.55;;
40449;SDS011;41787;53.570;10.032;2022-11-25T10:44:40;22.67;;;9.85;;
40449;SDS011;41787;53.570;10.032;2022-11-25T10:52:19;20.40;;;8.55;;
40449;SDS011;41787;53.570;10.032;2022-11-25T10:54:54;19.73;;;8.63;;
40449;SDS011;41787;53.570;10.032;2022-11-25T10:57:20;17.08;;;7.32;;
40449;SDS011;41787;53.570;10.032;2022-11-25T10:59:57;22.23;;;8.70;;
40449;SDS011;41787;53.570;10.032;2022-11-25T11:02:27;21.70;;;7.70;;
40449;SDS011;41787;53.570;10.032;2022-11-25T11:07:20;21.40;;;8.63;;
40449;SDS011;41787;53.570;10.032;2022-11-25T11:09:46;20.60;;;8.20;;
40449;SDS011;41787;53.570;10.032;2022-11-25T11:14:39;24.20;;;8.32;;
40449;SDS011;41787;53.570;10.032;2022-11-25T11:17:05;25.85;;;8.77;;
40449;SDS011;41787;53.570;10.032;2022-11-25T11:19:31;24.65;;;8.88;;
40449;SDS011;41787;53.570;10.032;2022-11-25T11:22:13;24.08;;;9.00;;
40449;SDS011;41787;53.570;10.032;2022-11-25T11:24:39;16.13;;;8.05;;
40449;SDS011;41787;53.570;10.032;2022-11-25T11:29:34;14.57;;;7.53;;
40449;SDS011;41787;53.570;10.032;2022-11-25T11:32:02;18.45;;;7.63;;
40449;SDS011;41787;53.570;10.032;2022-11-25T11:37:10;24.13;;;8.35;;
40449;SDS011;41787;53.570;10.032;2022-11-25T11:50:26;20.33;;;8.80;;
40449;SDS011;41787;53.570;10.032;2022-11-25T12:03:22;20.20;;;8.45;;
40449;SDS011;41787;53.570;10.032;2022-11-25T12:05:50;22.35;;;8.38;;
40449;SDS011;41787;53.570;10.032;2022-11-25T12:08:25;24.27;;;8.25;;
40449;SDS011;41787;53.570;10.032;2022-11-25T12:10:53;23.20;;;8.57;;
40449;SDS011;41787;53.570;10.032;2022-11-25T12:16:12;19.38;;;8.82;;
40449;SDS011;41787;53.570;10.032;2022-11-25T12:18:51;19.90;;;8.32;;
40449;SDS011;41787;53.570;10.032;2022-11-25T12:21:22;29.60;;;9.13;;
40449;SDS011;41787;53.570;10.032;2022-11-25T12:26:22;21.25;;;7.78;;
40449;SDS011;41787;53.570;10.032;2022-11-25T12:28:51;23.27;;;8.35;;
40449;SDS011;41787;53.570;10.032;2022-11-25T12:31:23;23.10;;;9.00;;
40449;SDS011;41787;53.570;10.032;2022-11-25T12:33:52;25.88;;;8.85;;
40449;SDS011;41787;53.570;10.032;2022-11-25T12:36:26;19.77;;;8.45;;
40449;SDS011;41787;53.570;10.032;2022-11-25T12:39:01;22.98;;;8.30;;
40449;SDS011;41787;53.570;10.032;2022-11-25T12:41:39;26.35;;;8.25;;
40449;SDS011;41787;53.570;10.032;2022-11-25T12:44:07;22.17;;;8.60;;
40449;SDS011;41787;53.570;10.032;2022-11-25T12:46:39;22.42;;;9.82;;
40449;SDS011;41787;53.570;10.032;2022-11-25T12:49:16;27.35;;;8.90;;
40449;SDS011;41787;53.570;10.032;2022-11-25T12:59:34;25.42;;;8.23;;
40449;SDS011;41787;53.570;10.032;2022-11-25T13:02:16;26.10;;;9.10;;
40449;SDS011;41787;53.570;10.032;2022-11-25T13:05:03;21.23;;;7.47;;
40449;SDS011;41787;53.570;10.032;2022-11-25T13:10:41;17.40;;;7.55;;
40449;SDS011;41787;53.570;10.032;2022-11-25T13:13:25;20.40;;;7.93;;
40449;SDS011;41787;53.570;10.032;2022-11-25T13:15:56;16.80;;;7.50;;
40449;SDS011;41787;53.570;10.032;2022-11-25T13:18:23;20.90;;;8.60;;
40449;SDS011;41787;53.570;10.032;2022-11-25T13:20:51;17.50;;;8.13;;
40449;SDS011;41787;53.570;10.032;2022-11-25T13:25:45;23.27;;;8.93;;
40449;SDS011;41787;53.570;10.032;2022-11-25T13:36:16;19.35;;;8.05;;
40449;SDS011;41787;53.570;10.032;2022-11-25T13:43:57;20.75;;;8.10;;
40449;SDS011;41787;53.570;10.032;2022-11-25T13:46:37;18.75;;;7.07;;
40449;SDS011;41787;53.570;10.032;2022-11-25T13:49:19;12.23;;;6.75;;
40449;SDS011;41787;53.570;10.032;2022-11-25T13:51:49;16.85;;;6.35;;
40449;SDS011;41787;53.570;10.032;2022-11-25T13:54:17;15.73;;;7.85;;
40449;SDS011;41787;53.570;10.032;2022-11-25T13:56:57;20.33;;;8.80;;
40449;SDS011;41787;53.570;10.032;2022-11-25T14:02:23;19.55;;;8.05;;
40449;SDS011;41787;53.570;10.032;2022-11-25T14:04:52;17.05;;;7.90;;
40449;SDS011;41787;53.570;10.032;2022-11-25T14:07:29;28.85;;;9.15;;
40449;SDS011;41787;53.570;10.032;2022-11-25T14:13:19;18.40;;;7.63;;
40449;SDS011;41787;53.570;10.032;2022-11-25T14:15:43;29.30;;;7.50;;
40449;SDS011;41787;53.570;10.032;2022-11-25T14:18:15;20.00;;;7.28;;
40449;SDS011;41787;53.570;10.032;2022-11-25T14:23:48;19.73;;;7.78;;
40449;SDS011;41787;53.570;10.032;2022-11-25T14:26:23;22.20;;;7.88;;
40449;SDS011;41787;53.570;10.032;2022-11-25T14:29:08;20.52;;;7.82;;
40449;SDS011;41787;53.570;10.032;2022-11-25T14:31:39;22.77;;;7.93;;
40449;SDS011;41787;53.570;10.032;2022-11-25T14:34:19;23.15;;;8.05;;
40449;SDS011;41787;53.570;10.032;2022-11-25T14:36:48;34.70;;;8.57;;
40449;SDS011;41787;53.570;10.032;2022-11-25T14:39:18;16.40;;;7.37;;
40449;SDS011;41787;53.570;10.032;2022-11-25T14:41:48;20.27;;;8.65;;
40449;SDS011;41787;53.570;10.032;2022-11-25T14:44:24;20.00;;;7.53;;
40449;SDS011;41787;53.570;10.032;2022-11-25T14:46:54;16.85;;;7.43;;
40449;SDS011;41787;53.570;10.032;2022-11-25T14:49:20;33.50;;;8.48;;
40449;SDS011;41787;53.570;10.032;2022-11-25T14:51:47;22.10;;;7.65;;
40449;SDS011;41787;53.570;10.032;2022-11-25T14:54:14;19.77;;;7.63;;
40449;SDS011;41787;53.570;10.032;2022-11-25T14:56:41;24.08;;;8.48;;
40449;SDS011;41787;53.570;10.032;2022-11-25T14:59:07;22.65;;;8.02;;
40449;SDS011;41787;53.570;10.032;2022-11-25T15:01:35;26.33;;;8.27;;
40449;SDS011;41787;53.570;10.032;2022-11-25T15:06:34;17.90;;;8.23;;
40449;SDS011;41787;53.570;10.032;2022-11-25T15:09:01;21.92;;;8.55;;
40449;SDS011;41787;53.570;10.032;2022-11-25T15:11:30;26.15;;;8.45;;
40449;SDS011;41787;53.570;10.032;2022-11-25T15:14:04;25.90;;;8.25;;
40449;SDS011;41787;53.570;10.032;2022-11-25T15:16:37;14.55;;;7.82;;
40449;SDS011;41787;53.570;10.032;2022-11-25T15:19:13;20.10;;;8.10;;
40449;SDS011;41787;53.570;10.032;2022-11-25T15:21:41;19.48;;;8.02;;
40449;SDS011;41787;53.570;10.032;2022-11-25T15:24:20;25.15;;;7.93;;
40449;SDS011;41787;53.570;10.032;2022-11-25T15:29:48;29.13;;;8.82;;
40449;SDS011;41787;53.570;10.032;2022-11-25T15:32:31;22.15;;;8.57;;
40449;SDS011;41787;53.570;10.032;2022-11-25T15:35:16;23.92;;;9.85;;
40449;SDS011;41787;53.570;10.032;2022-11-25T15:37:42;23.08;;;10.32;;
40449;SDS011;41787;53.570;10.032;2022-11-25T15:42:53;27.20;;;9.40;;
40449;SDS011;41787;53.570;10.032;2022-11-25T15:45:19;24.55;;;9.10;;
40449;SDS011;41787;53.570;10.032;2022-11-25T15:47:45;22.52;;;9.55;;
40449;SDS011;41787;53.570;10.032;2022-11-25T15:50:17;26.38;;;10.32;;
40449;SDS011;41787;53.570;10.032;2022-11-25T15:52:45;20.25;;;9.95;;
40449;SDS011;41787;53.570;10.032;2022-11-25T15:55:28;25.63;;;10.00;;
40449;SDS011;41787;53.570;10.032;2022-11-25T15:57:56;26.83;;;11.57;;
40449;SDS011;41787;53.570;10.032;2022-11-25T16:00:24;30.80;;;10.30;;
40449;SDS011;41787;53.570;10.032;2022-11-25T16:02:51;24.38;;;9.50;;
40449;SDS011;41787;53.570;10.032;2022-11-25T16:05:28;29.08;;;11.48;;
40449;SDS011;41787;53.570;10.032;2022-11-25T16:18:13;35.40;;;10.93;;
40449;SDS011;41787;53.570;10.032;2022-11-25T16:20:53;27.65;;;10.10;;
40449;SDS011;41787;53.570;10.032;2022-11-25T16:23:20;26.77;;;10.25;;
40449;SDS011;41787;53.570;10.032;2022-11-25T16:25:47;29.58;;;11.57;;
40449;SDS011;41787;53.570;10.032;2022-11-25T16:28:20;27.55;;;10.60;;